Time,TemperatureF,DewpointF,PressureIn,WindDirection,WindDirectionDegrees,WindSpeedMPH,WindSpeedGustMPH,Humidity,HourlyPrecipIn,Conditions,Clouds,dailyrainin,SoftwareType,DateUTC
2013-12-30 10:22:00,36.0,21.0,29.63,WNW,303,1.0,4.0,53,0.00,,,0.00,,2013-12-30 17:22:00,
2013-12-30 10:43:00,37.0,21.0,29.63,WNW,284,1.0,4.0,53,0.00,,,0.00,,2013-12-30 17:43:00,
2013-12-30 10:52:00,38.0,22.0,29.64,WNW,289,2.0,5.0,52,0.00,,,0.00,,2013-12-30 17:52:00,
2013-12-30 11:12:00,38.0,22.0,29.64,WNW,292,3.0,5.0,51,0.00,,,0.00,,2013-12-30 18:12:00,
2013-12-30 11:22:00,38.0,22.0,29.64,West,273,3.0,7.0,51,0.00,,,0.00,,2013-12-30 18:22:00,
2013-12-30 11:43:00,38.0,21.0,29.63,WNW,289,2.0,8.0,49,0.00,,,0.00,,2013-12-30 18:43:00,
2013-12-30 11:52:00,38.0,21.0,29.63,West,263,2.0,7.0,50,0.00,,,0.00,,2013-12-30 18:52:00,
2013-12-30 12:22:00,39.0,19.0,29.61,WNW,290,3.0,7.0,44,0.00,,,0.00,,2013-12-30 19:22:00,
2013-12-30 12:32:00,39.0,19.0,29.61,WNW,290,3.0,7.0,44,0.00,,,0.00,,2013-12-30 19:32:00,
2013-12-30 12:42:00,39.0,19.0,29.61,WNW,290,3.0,7.0,44,0.00,,,0.00,,2013-12-30 19:42:00,
2013-12-30 12:52:00,39.0,19.0,29.61,WNW,290,3.0,7.0,44,0.00,,,0.00,,2013-12-30 19:52:00,
2013-12-30 13:11:00,40.0,19.0,29.59,WNW,295,6.0,11.0,43,0.00,,,0.00,,2013-12-30 20:11:00,
2013-12-30 13:22:00,41.0,18.0,29.59,WNW,286,8.0,13.0,39,0.00,,,0.00,,2013-12-30 20:22:00,
2013-12-30 13:42:00,43.0,19.0,29.59,WSW,253,4.0,9.0,38,0.00,,,0.00,,2013-12-30 20:42:00,
2013-12-30 13:52:00,45.0,20.0,29.58,WSW,242,3.0,8.0,36,0.00,,,0.00,,2013-12-30 20:52:00,
2013-12-30 14:11:00,45.0,19.0,29.58,WSW,240,3.0,6.0,35,0.00,,,0.00,,2013-12-30 21:11:00,
2013-12-30 14:21:00,43.0,16.0,29.58,WNW,283,4.0,9.0,33,0.00,,,0.00,,2013-12-30 21:21:00,
2013-12-30 14:44:00,44.0,17.0,29.57,West,276,7.0,10.0,33,0.00,,,0.00,,2013-12-30 21:44:00,
2013-12-30 14:54:00,46.0,17.0,29.57,SW,234,6.0,9.0,31,0.00,,,0.00,,2013-12-30 21:54:00,
2013-12-30 15:23:00,45.0,16.0,29.57,WNW,288,8.0,11.0,31,0.00,,,0.00,,2013-12-30 22:23:00,
2013-12-30 15:43:00,45.0,15.0,29.57,WNW,288,7.0,12.0,29,0.00,,,0.00,,2013-12-30 22:43:00,
2013-12-30 15:53:00,45.0,14.0,29.57,WNW,292,8.0,11.0,28,0.00,,,0.00,,2013-12-30 22:53:00,
2013-12-30 16:12:00,45.0,14.0,29.57,WNW,290,4.0,9.0,28,0.00,,,0.00,,2013-12-30 23:12:00,
2013-12-30 16:22:00,45.0,12.0,29.58,NW,315,3.0,5.0,26,0.00,,,0.00,,2013-12-30 23:22:00,
2013-12-30 16:42:00,45.0,12.0,29.58,WNW,299,3.0,5.0,26,0.00,,,0.00,,2013-12-30 23:42:00,
2013-12-30 16:52:00,45.0,14.0,29.57,WNW,294,4.0,7.0,28,0.00,,,0.00,,2013-12-30 23:52:00,
2013-12-30 17:12:00,45.0,15.0,29.58,WNW,302,1.0,3.0,29,0.00,,,0.00,,2013-12-31 00:12:00,
2013-12-30 17:22:00,45.0,14.0,29.58,NW,309,2.0,5.0,28,0.00,,,0.00,,2013-12-31 00:22:00,
2013-12-30 17:42:00,45.0,13.0,29.59,NNW,331,6.0,7.0,27,0.00,,,0.00,,2013-12-31 00:42:00,
2013-12-30 17:52:00,44.0,12.0,29.59,North,352,4.0,7.0,27,0.00,,,0.00,,2013-12-31 00:52:00,
2013-12-30 18:11:00,44.0,13.0,29.60,NNE,25,2.0,3.0,28,0.00,,,0.00,,2013-12-31 01:11:00,
2013-12-30 18:21:00,44.0,14.0,29.61,NE,34,2.0,4.0,29,0.00,,,0.00,,2013-12-31 01:21:00,
2013-12-30 18:42:00,44.0,14.0,29.61,NE,34,3.0,4.0,29,0.00,,,0.00,,2013-12-31 01:42:00,
2013-12-30 18:52:00,44.0,14.0,29.61,ENE,64,3.0,6.0,29,0.00,,,0.00,,2013-12-31 01:52:00,
2013-12-30 21:23:00,44.0,12.0,29.67,NNE,22,1.0,3.0,27,0.00,,,0.00,,2013-12-31 04:23:00,